sensor_id;sensor_type;location;lat;lon;timestamp;P1;durP1;ratioP1;P2;durP2;ratioP2
23426;SDS011;41148;45.420;10.952;2023-02-11T00:01:10;1.05;;;1.05;;
23426;SDS011;41148;45.420;10.952;2023-02-11T00:03:42;1.10;;;1.10;;
23426;SDS011;41148;45.420;10.952;2023-02-11T00:06:10;2.83;;;2.53;;
23426;SDS011;41148;45.420;10.952;2023-02-11T00:08:37;4.10;;;1.23;;
23426;SDS011;41148;45.420;10.952;2023-02-11T00:11:06;2.42;;;2.28;;
23426;SDS011;41148;45.420;10.952;2023-02-11T00:13:33;1.38;;;1.38;;
23426;SDS011;41148;45.420;10.952;2023-02-11T00:16:04;4.18;;;3.88;;
23426;SDS011;41148;45.420;10.952;2023-02-11T00:18:33;20.00;;;3.70;;
23426;SDS011;41148;45.420;10.952;2023-02-11T00:21:06;1.98;;;1.83;;
23426;SDS011;41148;45.420;10.952;2023-02-11T00:23:35;1.67;;;1.58;;
23426;SDS011;41148;45.420;10.952;2023-02-11T00:26:03;9.45;;;4.43;;
23426;SDS011;41148;45.420;10.952;2023-02-11T00:28:38;1.00;;;1.00;;
23426;SDS011;41148;45.420;10.952;2023-02-11T00:31:09;2.33;;;2.22;;
23426;SDS011;41148;45.420;10.952;2023-02-11T00:33:38;8.68;;;4.35;;
23426;SDS011;41148;45.420;10.952;2023-02-11T00:36:06;2.20;;;2.05;;
23426;SDS011;41148;45.420;10.952;2023-02-11T00:38:35;3.10;;;2.90;;
23426;SDS011;41148;45.420;10.952;2023-02-11T00:41:03;0.43;;;0.43;;
23426;SDS011;41148;45.420;10.952;2023-02-11T00:43:30;1.60;;;1.60;;
23426;SDS011;41148;45.420;10.952;2023-02-11T00:45:58;6.30;;;3.47;;
23426;SDS011;41148;45.420;10.952;2023-02-11T00:48:25;2.75;;;2.53;;
23426;SDS011;41148;45.420;10.952;2023-02-11T00:50:53;2.40;;;2.20;;
23426;SDS011;41148;45.420;10.952;2023-02-11T00:53:20;8.43;;;1.92;;
23426;SDS011;41148;45.420;10.952;2023-02-11T00:55:48;1.50;;;1.48;;
23426;SDS011;41148;45.420;10.952;2023-02-11T00:58:15;2.67;;;2.47;;
23426;SDS011;41148;45.420;10.952;2023-02-11T01:00:43;4.18;;;3.88;;
23426;SDS011;41148;45.420;10.952;2023-02-11T01:03:11;5.50;;;3.72;;
23426;SDS011;41148;45.420;10.952;2023-02-11T01:05:39;3.03;;;2.78;;
23426;SDS011;41148;45.420;10.952;2023-02-11T01:08:08;1.40;;;1.40;;
23426;SDS011;41148;45.420;10.952;2023-02-11T01:10:36;0.90;;;0.90;;
23426;SDS011;41148;45.420;10.952;2023-02-11T01:13:03;3.38;;;3.05;;
23426;SDS011;41148;45.420;10.952;2023-02-11T01:15:32;4.88;;;1.65;;
23426;SDS011;41148;45.420;10.952;2023-02-11T01:18:00;6.63;;;3.80;;
23426;SDS011;41148;45.420;10.952;2023-02-11T01:20:27;6.05;;;2.95;;
23426;SDS011;41148;45.420;10.952;2023-02-11T01:22:56;1.05;;;1.05;;
23426;SDS011;41148;45.420;10.952;2023-02-11T01:25:23;1.35;;;1.35;;
23426;SDS011;41148;45.420;10.952;2023-02-11T01:27:51;1.73;;;1.63;;
23426;SDS011;41148;45.420;10.952;2023-02-11T01:30:51;3.88;;;3.58;;
23426;SDS011;41148;45.420;10.952;2023-02-11T01:33:19;1.38;;;1.38;;
23426;SDS011;41148;45.420;10.952;2023-02-11T01:35:46;1.25;;;1.25;;
23426;SDS011;41148;45.420;10.952;2023-02-11T01:38:15;2.67;;;2.30;;
23426;SDS011;41148;45.420;10.952;2023-02-11T01:40:53;1.02;;;1.02;;
23426;SDS011;41148;45.420;10.952;2023-02-11T01:43:31;1.00;;;1.00;;
23426;SDS011;41148;45.420;10.952;2023-02-11T01:46:20;1.55;;;1.55;;
23426;SDS011;41148;45.420;10.952;2023-02-11T01:48:55;3.00;;;2.15;;
23426;SDS011;41148;45.420;10.952;2023-02-11T01:51:38;0.70;;;0.70;;
23426;SDS011;41148;45.420;10.952;2023-02-11T01:54:12;2.15;;;2.10;;
23426;SDS011;41148;45.420;10.952;2023-02-11T01:57:01;3.33;;;2.83;;
23426;SDS011;41148;45.420;10.952;2023-02-11T01:59:51;3.70;;;3.38;;
23426;SDS011;41148;45.420;10.952;2023-02-11T02:02:42;1.50;;;1.48;;
23426;SDS011;41148;45.420;10.952;2023-02-11T02:10:27;0.88;;;0.88;;
23426;SDS011;41148;45.420;10.952;2023-02-11T02:12:57;2.17;;;1.95;;
23426;SDS011;41148;45.420;10.952;2023-02-11T02:15:27;13.98;;;3.25;;
23426;SDS011;41148;45.420;10.952;2023-02-11T02:18:08;2.65;;;2.45;;
23426;SDS011;41148;45.420;10.952;2023-02-11T02:23:24;1.08;;;1.08;;
23426;SDS011;41148;45.420;10.952;2023-02-11T02:29:08;1.10;;;1.10;;
23426;SDS011;41148;45.420;10.952;2023-02-11T02:34:26;1.92;;;1.83;;
23426;SDS011;41148;45.420;10.952;2023-02-11T02:37:09;1.13;;;1.10;;
23426;SDS011;41148;45.420;10.952;2023-02-11T02:39:44;0.85;;;0.85;;
23426;SDS011;41148;45.420;10.952;2023-02-11T02:42:15;1.03;;;1.03;;
23426;SDS011;41148;45.420;10.952;2023-02-11T02:44:50;3.83;;;3.47;;
23426;SDS011;41148;45.420;10.952;2023-02-11T02:47:37;3.45;;;1.63;;
23426;SDS011;41148;45.420;10.952;2023-02-11T02:50:05;6.45;;;4.10;;
23426;SDS011;41148;45.420;10.952;2023-02-11T02:52:43;6.00;;;3.20;;
23426;SDS011;41148;45.420;10.952;2023-02-11T02:55:29;22.10;;;3.22;;
23426;SDS011;41148;45.420;10.952;2023-02-11T02:58:22;1.80;;;1.70;;
23426;SDS011;41148;45.420;10.952;2023-02-11T03:01:08;1.35;;;1.35;;
23426;SDS011;41148;45.420;10.952;2023-02-11T03:03:51;1.00;;;1.00;;
23426;SDS011;41148;45.420;10.952;2023-02-11T03:09:39;4.95;;;2.40;;
23426;SDS011;41148;45.420;10.952;2023-02-11T03:12:15;2.35;;;2.25;;
23426;SDS011;41148;45.420;10.952;2023-02-11T03:14:43;2.17;;;2.08;;
23426;SDS011;41148;45.420;10.952;2023-02-11T03:17:12;2.33;;;2.22;;
23426;SDS011;41148;45.420;10.952;2023-02-11T03:19:42;2.40;;;2.30;;
23426;SDS011;41148;45.420;10.952;2023-02-11T03:22:17;2.17;;;2.08;;
23426;SDS011;41148;45.420;10.952;2023-02-11T03:24:48;1.60;;;1.35;;
23426;SDS011;41148;45.420;10.952;2023-02-11T03:27:26;6.75;;;2.47;;
23426;SDS011;41148;45.420;10.952;2023-02-11T03:30:09;3.25;;;3.15;;
23426;SDS011;41148;45.420;10.952;2023-02-11T03:32:48;1.33;;;1.33;;
23426;SDS011;41148;45.420;10.952;2023-02-11T03:35:29;2.80;;;2.17;;
23426;SDS011;41148;45.420;10.952;2023-02-11T03:38:19;1.83;;;1.83;;
23426;SDS011;41148;45.420;10.952;2023-02-11T03:40:49;1.23;;;1.15;;
23426;SDS011;41148;45.420;10.952;2023-02-11T03:43:29;0.40;;;0.40;;
23426;SDS011;41148;45.420;10.952;2023-02-11T03:48:32;1.98;;;1.85;;
23426;SDS011;41148;45.420;10.952;2023-02-11T03:51:04;5.97;;;1.92;;
23426;SDS011;41148;45.420;10.952;2023-02-11T03:53:35;0.73;;;0.73;;
23426;SDS011;41148;45.420;10.952;2023-02-11T03:58:37;0.60;;;0.60;;
23426;SDS011;41148;45.420;10.952;2023-02-11T04:01:04;0.65;;;0.65;;
23426;SDS011;41148;45.420;10.952;2023-02-11T04:03:34;0.90;;;0.90;;
23426;SDS011;41148;45.420;10.952;2023-02-11T04:06:02;1.95;;;1.85;;
23426;SDS011;41148;45.420;10.952;2023-02-11T04:08:30;1.92;;;1.83;;
23426;SDS011;41148;45.420;10.952;2023-02-11T04:10:58;4.10;;;3.70;;
23426;SDS011;41148;45.420;10.952;2023-02-11T04:13:26;1.40;;;1.30;;
23426;SDS011;41148;45.420;10.952;2023-02-11T04:15:53;3.47;;;1.73;;
23426;SDS011;41148;45.420;10.952;2023-02-11T04:18:21;1.63;;;1.63;;
23426;SDS011;41148;45.420;10.952;2023-02-11T04:20:49;2.55;;;2.38;;
23426;SDS011;41148;45.420;10.952;2023-02-11T04:23:17;1.15;;;1.15;;
23426;SDS011;41148;45.420;10.952;2023-02-11T04:25:44;5.43;;;2.58;;
23426;SDS011;41148;45.420;10.952;2023-02-11T04:28:12;1.45;;;1.35;;
23426;SDS011;41148;45.420;10.952;2023-02-11T04:30:40;1.10;;;1.10;;
23426;SDS011;41148;45.420;10.952;2023-02-11T04:33:07;1.00;;;1.00;;
23426;SDS011;41148;45.420;10.952;2023-02-11T04:35:34;2.42;;;2.28;;
23426;SDS011;41148;45.420;10.952;2023-02-11T04:38:02;1.27;;;1.27;;
23426;SDS011;41148;45.420;10.952;2023-02-11T04:40:29;1.55;;;1.55;;
23426;SDS011;41148;45.420;10.952;2023-02-11T04:42:57;1.77;;;1.67;;
23426;SDS011;41148;45.420;10.952;2023-02-11T04:45:24;1.75;;;1.65;;
23426;SDS011;41148;45.420;10.952;2023-02-11T04:47:52;3.03;;;1.90;;
23426;SDS011;41148;45.420;10.952;2023-02-11T04:50:19;2.15;;;2.05;;
23426;SDS011;41148;45.420;10.952;2023-02-11T04:52:46;1.42;;;1.35;;
23426;SDS011;41148;45.420;10.952;2023-02-11T04:55:14;5.07;;;1.20;;
23426;SDS011;41148;45.420;10.952;2023-02-11T04:57:41;3.50;;;3.28;;
23426;SDS011;41148;45.420;10.952;2023-02-11T05:00:09;1.25;;;1.25;;
23426;SDS011;41148;45.420;10.952;2023-02-11T05:02:37;1.77;;;1.67;;
23426;SDS011;41148;45.420;10.952;2023-02-11T05:05:04;2.08;;;1.98;;
23426;SDS011;41148;45.420;10.952;2023-02-11T05:07:32;3.55;;;3.08;;
23426;SDS011;41148;45.420;10.952;2023-02-11T05:09:59;1.98;;;1.88;;
23426;SDS011;41148;45.420;10.952;2023-02-11T05:12:27;2.50;;;2.40;;
23426;SDS011;41148;45.420;10.952;2023-02-11T05:14:54;8.07;;;3.55;;
23426;SDS011;41148;45.420;10.952;2023-02-11T05:17:21;10.88;;;2.40;;
23426;SDS011;41148;45.420;10.952;2023-02-11T05:19:49;1.52;;;1.42;;
23426;SDS011;41148;45.420;10.952;2023-02-11T05:22:16;2.33;;;2.22;;
23426;SDS011;41148;45.420;10.952;2023-02-11T05:24:44;3.83;;;2.80;;
23426;SDS011;41148;45.420;10.952;2023-02-11T05:27:11;1.02;;;1.02;;
23426;SDS011;41148;45.420;10.952;2023-02-11T05:29:39;5.70;;;4.10;;
23426;SDS011;41148;45.420;10.952;2023-02-11T05:32:06;3.22;;;3.00;;
23426;SDS011;41148;45.420;10.952;2023-02-11T05:34:35;6.57;;;3.95;;
23426;SDS011;41148;45.420;10.952;2023-02-11T05:37:02;4.22;;;4.03;;
23426;SDS011;41148;45.420;10.952;2023-02-11T05:39:30;5.28;;;4.97;;
23426;SDS011;41148;45.420;10.952;2023-02-11T05:41:57;3.55;;;3.25;;
23426;SDS011;41148;45.420;10.952;2023-02-11T05:44:24;7.80;;;7.03;;
23426;SDS011;41148;45.420;10.952;2023-02-11T05:46:51;11.30;;;6.05;;
23426;SDS011;41148;45.420;10.952;2023-02-11T05:49:19;22.80;;;7.72;;
23426;SDS011;41148;45.420;10.952;2023-02-11T05:51:46;5.05;;;4.65;;
23426;SDS011;41148;45.420;10.952;2023-02-11T05:54:14;13.05;;;9.55;;
23426;SDS011;41148;45.420;10.952;2023-02-11T05:56:42;17.20;;;14.07;;
23426;SDS011;41148;45.420;10.952;2023-02-11T05:59:12;29.00;;;12.52;;
23426;SDS011;41148;45.420;10.952;2023-02-11T06:01:40;25.70;;;14.18;;
23426;SDS011;41148;45.420;10.952;2023-02-11T06:04:07;26.58;;;14.02;;
23426;SDS011;41148;45.420;10.952;2023-02-11T06:06:35;27.67;;;17.15;;
23426;SDS011;41148;45.420;10.952;2023-02-11T06:09:02;27.55;;;15.25;;
23426;SDS011;41148;45.420;10.952;2023-02-11T06:11:30;10.40;;;9.27;;
23426;SDS011;41148;45.420;10.952;2023-02-11T06:13:57;18.55;;;16.67;;
23426;SDS011;41148;45.420;10.952;2023-02-11T06:16:24;19.20;;;9.50;;
23426;SDS011;41148;45.420;10.952;2023-02-11T06:18:52;46.90;;;10.82;;
23426;SDS011;41148;45.420;10.952;2023-02-11T06:21:19;17.80;;;8.75;;
23426;SDS011;41148;45.420;10.952;2023-02-11T06:23:47;9.55;;;8.85;;
23426;SDS011;41148;45.420;10.952;2023-02-11T06:26:16;5.50;;;5.25;;
23426;SDS011;41148;45.420;10.952;2023-02-11T06:28:45;16.27;;;11.63;;
23426;SDS011;41148;45.420;10.952;2023-02-11T06:31:13;5.85;;;4.93;;
23426;SDS011;41148;45.420;10.952;2023-02-11T06:33:41;14.93;;;11.00;;
23426;SDS011;41148;45.420;10.952;2023-02-11T06:36:10;59.95;;;8.25;;
23426;SDS011;41148;45.420;10.952;2023-02-11T06:38:43;20.63;;;8.38;;
23426;SDS011;41148;45.420;10.952;2023-02-11T06:41:12;14.70;;;13.25;;
23426;SDS011;41148;45.420;10.952;2023-02-11T06:43:41;11.98;;;10.95;;
23426;SDS011;41148;45.420;10.952;2023-02-11T06:46:09;15.85;;;9.45;;
23426;SDS011;41148;45.420;10.952;2023-02-11T06:48:37;8.52;;;7.82;;
23426;SDS011;41148;45.420;10.952;2023-02-11T06:51:06;19.35;;;12.48;;
23426;SDS011;41148;45.420;10.952;2023-02-11T06:53:39;16.15;;;11.07;;
23426;SDS011;41148;45.420;10.952;2023-02-11T06:56:09;16.33;;;11.75;;
23426;SDS011;41148;45.420;10.952;2023-02-11T06:58:38;18.30;;;10.07;;
23426;SDS011;41148;45.420;10.952;2023-02-11T07:01:06;5.63;;;5.15;;
23426;SDS011;41148;45.420;10.952;2023-02-11T07:03:35;10.57;;;8.60;;
23426;SDS011;41148;45.420;10.952;2023-02-11T07:06:04;16.00;;;10.02;;
23426;SDS011;41148;45.420;10.952;2023-02-11T07:08:33;25.80;;;11.82;;
23426;SDS011;41148;45.420;10.952;2023-02-11T07:11:09;9.75;;;8.88;;
23426;SDS011;41148;45.420;10.952;2023-02-11T07:16:22;12.50;;;9.90;;
23426;SDS011;41148;45.420;10.952;2023-02-11T07:18:50;23.52;;;10.95;;
23426;SDS011;41148;45.420;10.952;2023-02-11T07:21:18;8.20;;;7.47;;
23426;SDS011;41148;45.420;10.952;2023-02-11T07:23:47;16.98;;;10.40;;
23426;SDS011;41148;45.420;10.952;2023-02-11T07:26:16;19.35;;;11.85;;
23426;SDS011;41148;45.420;10.952;2023-02-11T07:28:47;6.35;;;5.78;;
23426;SDS011;41148;45.420;10.952;2023-02-11T07:31:16;22.95;;;14.77;;
23426;SDS011;41148;45.420;10.952;2023-02-11T07:33:46;8.30;;;7.45;;
23426;SDS011;41148;45.420;10.952;2023-02-11T07:36:14;11.77;;;10.63;;
23426;SDS011;41148;45.420;10.952;2023-02-11T07:38:42;6.65;;;6.00;;
23426;SDS011;41148;45.420;10.952;2023-02-11T07:41:14;15.00;;;9.63;;
23426;SDS011;41148;45.420;10.952;2023-02-11T07:43:43;14.02;;;7.25;;
23426;SDS011;41148;45.420;10.952;2023-02-11T07:46:16;4.22;;;3.95;;
23426;SDS011;41148;45.420;10.952;2023-02-11T07:48:45;7.63;;;6.00;;
23426;SDS011;41148;45.420;10.952;2023-02-11T07:51:14;17.70;;;12.05;;
23426;SDS011;41148;45.420;10.952;2023-02-11T07:53:43;9.20;;;6.40;;
23426;SDS011;41148;45.420;10.952;2023-02-11T07:56:12;6.65;;;6.15;;
23426;SDS011;41148;45.420;10.952;2023-02-11T07:58:41;9.43;;;8.18;;
23426;SDS011;41148;45.420;10.952;2023-02-11T08:01:13;12.50;;;8.05;;
23426;SDS011;41148;45.420;10.952;2023-02-11T08:03:43;12.18;;;8.35;;
23426;SDS011;41148;45.420;10.952;2023-02-11T08:06:13;11.50;;;7.95;;
23426;SDS011;41148;45.420;10.952;2023-02-11T08:08:42;4.25;;;3.95;;
23426;SDS011;41148;45.420;10.952;2023-02-11T08:11:11;11.68;;;6.80;;
23426;SDS011;41148;45.420;10.952;2023-02-11T08:13:40;5.87;;;4.77;;
23426;SDS011;41148;45.420;10.952;2023-02-11T08:16:08;8.38;;;6.32;;
23426;SDS011;41148;45.420;10.952;2023-02-11T08:18:42;23.50;;;7.80;;
23426;SDS011;41148;45.420;10.952;2023-02-11T08:21:10;3.38;;;3.25;;
23426;SDS011;41148;45.420;10.952;2023-02-11T08:23:38;5.80;;;5.28;;
23426;SDS011;41148;45.420;10.952;2023-02-11T08:26:08;7.63;;;6.97;;
23426;SDS011;41148;45.420;10.952;2023-02-11T08:28:37;60.80;;;7.72;;
23426;SDS011;41148;45.420;10.952;2023-02-11T08:31:42;3.20;;;3.00;;
23426;SDS011;41148;45.420;10.952;2023-02-11T08:34:12;1.85;;;1.75;;
23426;SDS011;41148;45.420;10.952;2023-02-11T08:36:40;3.83;;;3.58;;
23426;SDS011;41148;45.420;10.952;2023-02-11T08:39:13;8.38;;;6.05;;
23426;SDS011;41148;45.420;10.952;2023-02-11T08:41:47;4.05;;;3.67;;
23426;SDS011;41148;45.420;10.952;2023-02-11T08:44:19;3.88;;;3.30;;
23426;SDS011;41148;45.420;10.952;2023-02-11T08:46:47;9.05;;;5.65;;
23426;SDS011;41148;45.420;10.952;2023-02-11T08:49:16;2.33;;;2.22;;
23426;SDS011;41148;45.420;10.952;2023-02-11T08:51:44;2.42;;;2.28;;
23426;SDS011;41148;45.420;10.952;2023-02-11T08:54:12;3.47;;;3.13;;
23426;SDS011;41148;45.420;10.952;2023-02-11T08:56:40;3.63;;;2.65;;
23426;SDS011;41148;45.420;10.952;2023-02-11T08:59:10;2.67;;;2.50;;
23426;SDS011;41148;45.420;10.952;2023-02-11T09:01:40;6.15;;;3.50;;
23426;SDS011;41148;45.420;10.952;2023-02-11T09:04:08;5.10;;;4.05;;
23426;SDS011;41148;45.420;10.952;2023-02-11T09:06:36;2.45;;;2.35;;
23426;SDS011;41148;45.420;10.952;2023-02-11T09:09:04;3.10;;;2.90;;
23426;SDS011;41148;45.420;10.952;2023-02-11T09:11:32;1.33;;;1.33;;
23426;SDS011;41148;45.420;10.952;2023-02-11T09:14:03;2.28;;;2.17;;
23426;SDS011;41148;45.420;10.952;2023-02-11T09:16:31;6.55;;;4.72;;
23426;SDS011;41148;45.420;10.952;2023-02-11T09:19:01;2.95;;;2.55;;
23426;SDS011;41148;45.420;10.952;2023-02-11T09:21:29;5.30;;;2.60;;
23426;SDS011;41148;45.420;10.952;2023-02-11T09:23:57;2.00;;;1.90;;
23426;SDS011;41148;45.420;10.952;2023-02-11T09:26:25;2.83;;;2.53;;
23426;SDS011;41148;45.420;10.952;2023-02-11T09:28:58;7.85;;;1.80;;
23426;SDS011;41148;45.420;10.952;2023-02-11T09:31:33;1.52;;;1.45;;
23426;SDS011;41148;45.420;10.952;2023-02-11T09:34:21;1.85;;;1.75;;
23426;SDS011;41148;45.420;10.952;2023-02-11T09:36:48;2.67;;;2.58;;
23426;SDS011;41148;45.420;10.952;2023-02-11T09:39:16;5.35;;;4.03;;
23426;SDS011;41148;45.420;10.952;2023-02-11T09:41:51;1.55;;;1.45;;
23426;SDS011;41148;45.420;10.952;2023-02-11T09:44:26;4.57;;;4.22;;
23426;SDS011;41148;45.420;10.952;2023-02-11T09:46:57;1.58;;;1.52;;
23426;SDS011;41148;45.420;10.952;2023-02-11T09:49:32;2.17;;;2.08;;
23426;SDS011;41148;45.420;10.952;2023-02-11T09:55:01;2.47;;;2.28;;
23426;SDS011;41148;45.420;10.952;2023-02-11T09:57:31;0.77;;;0.77;;
23426;SDS011;41148;45.420;10.952;2023-02-11T10:00:02;5.13;;;2.10;;
23426;SDS011;41148;45.420;10.952;2023-02-11T10:02:52;2.67;;;2.45;;
23426;SDS011;41148;45.420;10.952;2023-02-11T10:05:37;3.15;;;2.95;;
23426;SDS011;41148;45.420;10.952;2023-02-11T10:08:19;2.50;;;2.30;;
23426;SDS011;41148;45.420;10.952;2023-02-11T10:11:17;3.15;;;2.92;;
23426;SDS011;41148;45.420;10.952;2023-02-11T10:14:17;1.80;;;1.77;;
23426;SDS011;41148;45.420;10.952;2023-02-11T10:17:13;2.22;;;2.00;;
23426;SDS011;41148;45.420;10.952;2023-02-11T10:20:00;0.90;;;0.90;;
23426;SDS011;41148;45.420;10.952;2023-02-11T10:22:36;0.95;;;0.95;;
23426;SDS011;41148;45.420;10.952;2023-02-11T10:27:46;1.20;;;1.20;;
23426;SDS011;41148;45.420;10.952;2023-02-11T10:30:19;8.05;;;4.13;;
23426;SDS011;41148;45.420;10.952;2023-02-11T10:32:53;5.25;;;3.55;;
23426;SDS011;41148;45.420;10.952;2023-02-11T10:35:23;1.02;;;1.02;;
23426;SDS011;41148;45.420;10.952;2023-02-11T10:37:50;4.28;;;3.90;;
23426;SDS011;41148;45.420;10.952;2023-02-11T10:40:20;2.58;;;2.42;;
23426;SDS011;41148;45.420;10.952;2023-02-11T10:42:50;2.05;;;1.95;;
23426;SDS011;41148;45.420;10.952;2023-02-11T10:45:27;4.43;;;2.00;;
23426;SDS011;41148;45.420;10.952;2023-02-11T10:47:59;2.15;;;1.73;;
23426;SDS011;41148;45.420;10.952;2023-02-11T10:50:31;3.42;;;2.85;;
23426;SDS011;41148;45.420;10.952;2023-02-11T10:55:42;13.40;;;4.05;;
23426;SDS011;41148;45.420;10.952;2023-02-11T10:58:23;0.82;;;0.82;;
23426;SDS011;41148;45.420;10.952;2023-02-11T11:00:54;1.95;;;1.85;;
23426;SDS011;41148;45.420;10.952;2023-02-11T11:03:24;3.50;;;2.60;;
23426;SDS011;41148;45.420;10.952;2023-02-11T11:05:59;4.43;;;3.20;;
23426;SDS011;41148;45.420;10.952;2023-02-11T11:08:47;1.90;;;1.80;;
23426;SDS011;41148;45.420;10.952;2023-02-11T11:11:20;1.25;;;1.17;;
23426;SDS011;41148;45.420;10.952;2023-02-11T11:16:21;3.05;;;2.25;;
23426;SDS011;41148;45.420;10.952;2023-02-11T11:21:39;3.00;;;2.80;;
23426;SDS011;41148;45.420;10.952;2023-02-11T11:26:51;5.05;;;3.10;;
23426;SDS011;41148;45.420;10.952;2023-02-11T11:29:32;2.42;;;2.25;;
23426;SDS011;41148;45.420;10.952;2023-02-11T11:32:19;3.03;;;2.45;;
23426;SDS011;41148;45.420;10.952;2023-02-11T11:34:50;2.90;;;1.65;;
23426;SDS011;41148;45.420;10.952;2023-02-11T11:37:22;7.68;;;3.17;;
23426;SDS011;41148;45.420;10.952;2023-02-11T11:40:01;1.05;;;1.05;;
23426;SDS011;41148;45.420;10.952;2023-02-11T11:42:30;3.15;;;2.88;;
23426;SDS011;41148;45.420;10.952;2023-02-11T11:45:00;2.33;;;2.05;;
23426;SDS011;41148;45.420;10.952;2023-02-11T11:47:35;0.98;;;0.98;;
23426;SDS011;41148;45.420;10.952;2023-02-11T11:50:36;2.08;;;1.98;;
23426;SDS011;41148;45.420;10.952;2023-02-11T11:56:19;14.00;;;5.68;;
23426;SDS011;41148;45.420;10.952;2023-02-11T11:58:49;3.35;;;3.08;;
23426;SDS011;41148;45.420;10.952;2023-02-11T12:09:30;5.90;;;2.97;;
23426;SDS011;41148;45.420;10.952;2023-02-11T12:15:07;3.47;;;3.20;;
23426;SDS011;41148;45.420;10.952;2023-02-11T12:17:49;8.60;;;3.88;;
23426;SDS011;41148;45.420;10.952;2023-02-11T12:23:13;8.52;;;2.30;;
23426;SDS011;41148;45.420;10.952;2023-02-11T12:26:13;6.28;;;4.10;;
23426;SDS011;41148;45.420;10.952;2023-02-11T12:29:07;3.63;;;3.42;;
23426;SDS011;41148;45.420;10.952;2023-02-11T12:35:03;2.03;;;1.60;;
23426;SDS011;41148;45.420;10.952;2023-02-11T12:43:37;5.78;;;4.30;;
23426;SDS011;41148;45.420;10.952;2023-02-11T12:46:09;3.10;;;2.88;;
23426;SDS011;41148;45.420;10.952;2023-02-11T12:54:29;2.28;;;2.05;;
23426;SDS011;41148;45.420;10.952;2023-02-11T13:08:08;2.33;;;2.22;;
23426;SDS011;41148;45.420;10.952;2023-02-11T13:10:37;2.58;;;2.42;;
23426;SDS011;41148;45.420;10.952;2023-02-11T13:13:12;2.40;;;2.23;;
23426;SDS011;41148;45.420;10.952;2023-02-11T13:15:55;2.38;;;2.10;;
23426;SDS011;41148;45.420;10.952;2023-02-11T13:21:22;3.70;;;3.10;;
23426;SDS011;41148;45.420;10.952;2023-02-11T13:29:54;4.47;;;2.58;;
23426;SDS011;41148;45.420;10.952;2023-02-11T13:38:01;1.45;;;1.45;;
23426;SDS011;41148;45.420;10.952;2023-02-11T13:40:37;0.87;;;0.87;;
23426;SDS011;41148;45.420;10.952;2023-02-11T13:43:06;4.40;;;1.95;;
23426;SDS011;41148;45.420;10.952;2023-02-11T13:45:47;3.65;;;3.15;;
23426;SDS011;41148;45.420;10.952;2023-02-11T13:48:27;1.63;;;1.58;;
23426;SDS011;41148;45.420;10.952;2023-02-11T13:50:58;2.83;;;2.17;;
23426;SDS011;41148;45.420;10.952;2023-02-11T13:53:28;1.83;;;1.25;;
23426;SDS011;41148;45.420;10.952;2023-02-11T13:56:06;4.38;;;1.42;;
23426;SDS011;41148;45.420;10.952;2023-02-11T13:58:46;2.65;;;2.45;;
23426;SDS011;41148;45.420;10.952;2023-02-11T14:04:23;1.83;;;1.73;;
23426;SDS011;41148;45.420;10.952;2023-02-11T14:10:46;1.35;;;1.30;;
23426;SDS011;41148;45.420;10.952;2023-02-11T14:13:05;2.53;;;2.33;;
23426;SDS011;41148;45.420;10.952;2023-02-11T14:15:56;2.60;;;2.50;;
23426;SDS011;41148;45.420;10.952;2023-02-11T14:21:12;2.78;;;2.58;;
23426;SDS011;41148;45.420;10.952;2023-02-11T14:28:48;2.30;;;2.20;;
23426;SDS011;41148;45.420;10.952;2023-02-11T14:31:22;2.80;;;2.60;;
23426;SDS011;41148;45.420;10.952;2023-02-11T14:41:43;5.10;;;2.80;;
23426;SDS011;41148;45.420;10.952;2023-02-11T14:46:44;2.25;;;1.70;;
23426;SDS011;41148;45.420;10.952;2023-02-11T14:49:18;1.30;;;1.30;;
23426;SDS011;41148;45.420;10.952;2023-02-11T14:51:52;3.50;;;2.70;;
23426;SDS011;41148;45.420;10.952;2023-02-11T14:54:23;4.45;;;1.35;;
23426;SDS011;41148;45.420;10.952;2023-02-11T14:57:06;2.55;;;2.05;;
23426;SDS011;41148;45.420;10.952;2023-02-11T14:59:56;3.58;;;2.40;;
23426;SDS011;41148;45.420;10.952;2023-02-11T15:02:33;3.28;;;2.05;;
23426;SDS011;41148;45.420;10.952;2023-02-11T15:08:01;9.38;;;3.75;;
23426;SDS011;41148;45.420;10.952;2023-02-11T15:10:34;1.45;;;1.35;;
23426;SDS011;41148;45.420;10.952;2023-02-11T15:13:07;4.93;;;3.42;;
23426;SDS011;41148;45.420;10.952;2023-02-11T15:15:42;5.90;;;3.17;;
23426;SDS011;41148;45.420;10.952;2023-02-11T15:18:16;49.97;;;3.92;;
23426;SDS011;41148;45.420;10.952;2023-02-11T15:20:48;2.63;;;2.30;;
23426;SDS011;41148;45.420;10.952;2023-02-11T15:23:20;5.70;;;2.78;;
23426;SDS011;41148;45.420;10.952;2023-02-11T15:25:51;1.80;;;1.45;;
23426;SDS011;41148;45.420;10.952;2023-02-11T15:28:37;2.60;;;2.50;;
23426;SDS011;41148;45.420;10.952;2023-02-11T15:31:13;2.10;;;2.00;;
23426;SDS011;41148;45.420;10.952;2023-02-11T15:33:42;1.38;;;1.38;;
23426;SDS011;41148;45.420;10.952;2023-02-11T15:36:10;4.05;;;2.63;;
23426;SDS011;41148;45.420;10.952;2023-02-11T15:38:39;3.80;;;3.38;;
23426;SDS011;41148;45.420;10.952;2023-02-11T15:41:07;10.23;;;2.53;;
23426;SDS011;41148;45.420;10.952;2023-02-11T15:43:55;3.35;;;1.65;;
23426;SDS011;41148;45.420;10.952;2023-02-11T15:46:22;2.35;;;2.25;;
23426;SDS011;41148;45.420;10.952;2023-02-11T15:48:51;3.65;;;3.00;;
23426;SDS011;41148;45.420;10.952;2023-02-11T15:51:28;12.27;;;4.30;;
23426;SDS011;41148;45.420;10.952;2023-02-11T15:54:02;3.20;;;2.92;;
23426;SDS011;41148;45.420;10.952;2023-02-11T15:56:36;3.65;;;3.40;;
23426;SDS011;41148;45.420;10.952;2023-02-11T16:01:53;2.55;;;2.45;;
23426;SDS011;41148;45.420;10.952;2023-02-11T16:04:22;3.35;;;3.03;;
23426;SDS011;41148;45.420;10.952;2023-02-11T16:06:52;5.78;;;3.75;;
23426;SDS011;41148;45.420;10.952;2023-02-11T16:12:03;5.43;;;4.40;;
23426;SDS011;41148;45.420;10.952;2023-02-11T16:14:48;1.80;;;1.77;;
23426;SDS011;41148;45.420;10.952;2023-02-11T16:17:25;5.38;;;3.10;;
23426;SDS011;41148;45.420;10.952;2023-02-11T16:19:54;1.83;;;1.75;;
23426;SDS011;41148;45.420;10.952;2023-02-11T16:22:26;2.45;;;2.13;;
23426;SDS011;41148;45.420;10.952;2023-02-11T16:24:57;2.97;;;2.65;;
23426;SDS011;41148;45.420;10.952;2023-02-11T16:27:27;6.88;;;4.90;;
23426;SDS011;41148;45.420;10.952;2023-02-11T16:30:00;1.85;;;1.67;;
23426;SDS011;41148;45.420;10.952;2023-02-11T16:32:28;3.78;;;3.47;;
23426;SDS011;41148;45.420;10.952;2023-02-11T16:34:57;2.80;;;2.58;;
23426;SDS011;41148;45.420;10.952;2023-02-11T16:37:26;4.15;;;3.85;;
23426;SDS011;41148;45.420;10.952;2023-02-11T16:39:54;3.63;;;2.97;;
23426;SDS011;41148;45.420;10.952;2023-02-11T16:42:23;5.90;;;3.70;;
23426;SDS011;41148;45.420;10.952;2023-02-11T16:44:50;3.00;;;2.38;;
23426;SDS011;41148;45.420;10.952;2023-02-11T16:47:19;3.08;;;2.78;;
23426;SDS011;41148;45.420;10.952;2023-02-11T16:49:50;5.32;;;4.82;;
23426;SDS011;41148;45.420;10.952;2023-02-11T16:52:18;11.85;;;3.35;;
23426;SDS011;41148;45.420;10.952;2023-02-11T16:54:47;2.97;;;2.50;;
23426;SDS011;41148;45.420;10.952;2023-02-11T16:57:21;3.63;;;3.33;;
23426;SDS011;41148;45.420;10.952;2023-02-11T16:59:51;3.47;;;3.05;;
23426;SDS011;41148;45.420;10.952;2023-02-11T17:04:51;10.23;;;3.28;;
23426;SDS011;41148;45.420;10.952;2023-02-11T17:07:20;3.38;;;2.92;;
23426;SDS011;41148;45.420;10.952;2023-02-11T17:09:48;4.55;;;4.15;;
23426;SDS011;41148;45.420;10.952;2023-02-11T17:12:16;4.25;;;3.78;;
23426;SDS011;41148;45.420;10.952;2023-02-11T17:14:43;4.22;;;3.17;;